createdAt,value
2019-04-04T00:00:29.464Z,59.69
2019-04-04T00:02:55.430Z,60.33
2019-04-04T00:05:21.561Z,60.53
2019-04-04T00:07:47.560Z,60.33
2019-04-04T00:10:13.410Z,59.76
2019-04-04T00:12:39.639Z,59.26
2019-04-04T00:15:05.786Z,59.26
2019-04-04T00:17:31.641Z,59.55
2019-04-04T00:19:59.011Z,59.31
2019-04-04T00:22:25.493Z,59.77
2019-04-04T00:24:51.466Z,59.66
2019-04-04T00:27:17.474Z,59.92
2019-04-04T00:29:43.400Z,60.11
2019-04-04T00:32:09.364Z,59.51
2019-04-04T00:34:35.270Z,59.52
2019-04-04T00:37:04.394Z,60.44
2019-04-04T00:39:29.331Z,59.77
2019-04-04T00:41:55.366Z,60.17
2019-04-04T00:44:23.082Z,59.73
2019-04-04T00:46:49.132Z,59.82
2019-04-04T00:49:15.151Z,60.26
2019-04-04T00:51:41.267Z,60.44
2019-04-04T00:54:07.204Z,59.94
2019-04-04T00:56:33.317Z,59.32
2019-04-04T00:58:59.274Z,59.10
2019-04-04T01:01:26.895Z,59.19
2019-04-04T01:03:53.078Z,59.76
2019-04-04T01:06:20.545Z,58.21
2019-04-04T01:08:46.623Z,58.90
2019-04-04T01:11:12.463Z,60.08
2019-04-04T01:13:38.752Z,59.27
2019-04-04T01:16:04.960Z,59.36
2019-04-04T01:18:31.020Z,59.65
2019-04-04T01:20:57.108Z,59.69
2019-04-04T01:23:23.042Z,59.42
2019-04-04T01:25:49.008Z,59.46
2019-04-04T01:28:14.985Z,59.43
2019-04-04T01:30:41.707Z,59.09
2019-04-04T01:33:08.738Z,59.10
2019-04-04T01:35:34.843Z,57.41
2019-04-04T01:38:00.800Z,58.52
2019-04-04T01:40:26.618Z,59.31
2019-04-04T01:42:52.528Z,59.26
2019-04-04T01:45:18.370Z,56.85
2019-04-04T01:47:47.643Z,58.42
2019-04-04T01:50:12.417Z,58.20
2019-04-04T01:52:38.475Z,58.52
2019-04-04T01:55:04.536Z,58.93
2019-04-04T01:57:30.515Z,59.19
2019-04-04T01:59:56.472Z,58.84
2019-04-04T02:02:22.492Z,58.30
2019-04-04T02:04:48.675Z,58.27
2019-04-04T02:07:14.650Z,57.63
2019-04-04T02:09:43.255Z,57.97
2019-04-04T02:12:08.637Z,58.31
2019-04-04T02:14:34.575Z,58.29
2019-04-04T02:17:00.455Z,57.65
2019-04-04T02:19:26.302Z,57.25
2019-04-04T02:21:52.133Z,57.49
2019-04-04T02:24:18.157Z,56.20
2019-04-04T02:26:44.092Z,57.05
2019-04-04T02:29:11.153Z,57.01
2019-04-04T02:31:53.772Z,56.79
2019-04-04T02:34:19.621Z,56.91
2019-04-04T02:36:48.775Z,56.56
2019-04-04T02:39:15.388Z,57.12
2019-04-04T02:41:41.411Z,56.35
2019-04-04T02:44:07.442Z,57.07
2019-04-04T02:46:33.546Z,56.83
2019-04-04T02:48:59.624Z,56.85
2019-04-04T02:51:25.483Z,57.66
2019-04-04T02:53:52.953Z,59.21
2019-04-04T02:56:18.958Z,59.50
2019-04-04T02:58:46.338Z,57.84
2019-04-04T03:01:12.939Z,59.02
2019-04-04T03:03:42.054Z,58.91
2019-04-04T03:06:07.007Z,59.12
2019-04-04T03:08:36.726Z,59.65
2019-04-04T03:11:00.991Z,61.25
2019-04-04T03:13:31.141Z,62.32
2019-04-04T03:15:55.053Z,63.25
2019-04-04T03:18:20.936Z,62.56
2019-04-04T03:20:50.373Z,63.04
2019-04-04T03:23:14.506Z,67.98
2019-04-04T03:25:40.445Z,66.67
2019-04-04T03:28:06.256Z,65.48
2019-04-04T03:30:32.099Z,66.05
2019-04-04T03:32:58.125Z,65.50
2019-04-04T03:35:27.987Z,63.98
2019-04-04T03:37:52.161Z,67.13
2019-04-04T03:40:18.270Z,69.99
2019-04-04T03:42:44.854Z,66.86
2019-04-04T03:45:11.065Z,70.37
2019-04-04T03:47:36.988Z,70.70
2019-04-04T03:50:04.812Z,73.41
2019-04-04T03:52:30.753Z,69.49
2019-04-04T03:54:56.722Z,72.43
2019-04-04T03:57:22.519Z,71.48
2019-04-04T03:59:48.359Z,70.55
2019-04-04T04:02:17.831Z,75.86
2019-04-04T04:04:42.111Z,75.86
2019-04-04T04:07:13.841Z,72.10
2019-04-04T04:09:37.134Z,70.98
2019-04-04T04:12:03.002Z,67.30
2019-04-04T04:14:28.847Z,68.85
2019-04-04T04:16:54.834Z,69.86
2019-04-04T04:19:24.028Z,72.94
2019-04-04T04:21:48.446Z,70.35
2019-04-04T04:24:14.412Z,69.56
2019-04-04T04:26:41.874Z,67.36
2019-04-04T04:29:08.128Z,69.98
2019-04-04T04:31:33.972Z,71.33
2019-04-04T04:34:01.697Z,66.31
2019-04-04T04:36:27.678Z,65.34
2019-04-04T04:38:58.848Z,66.13
2019-04-04T04:41:21.504Z,66.21
2019-04-04T04:43:47.415Z,65.19
2019-04-04T04:46:16.848Z,63.32
2019-04-04T04:48:41.036Z,62.72
2019-04-04T04:51:06.869Z,63.72
2019-04-04T04:53:32.780Z,63.54
2019-04-04T04:56:00.588Z,64.46
2019-04-04T04:58:26.445Z,61.63
2019-04-04T05:00:52.435Z,64.54
2019-04-04T05:03:18.266Z,64.35
2019-04-04T05:05:44.121Z,64.55
2019-04-04T05:08:10.690Z,64.93
2019-04-04T05:10:36.584Z,63.53
2019-04-04T05:13:02.568Z,62.95
2019-04-04T05:15:30.428Z,62.00
2019-04-04T05:17:56.429Z,62.59
2019-04-04T05:20:23.126Z,64.28
2019-04-04T05:22:50.507Z,65.67
2019-04-04T05:25:16.382Z,63.70
2019-04-04T05:27:42.222Z,64.96
2019-04-04T05:30:08.709Z,63.33
2019-04-04T05:32:34.629Z,63.55
2019-04-04T05:35:01.171Z,64.34
2019-04-04T05:37:28.720Z,63.10
2019-04-04T05:39:55.411Z,62.56
2019-04-04T05:42:21.459Z,62.64
2019-04-04T05:44:47.319Z,62.01
2019-04-04T05:47:13.137Z,63.47
2019-04-04T05:49:38.979Z,63.31
2019-04-04T05:52:04.962Z,62.80
2019-04-04T05:54:30.802Z,62.53
2019-04-04T05:56:56.685Z,65.43
2019-04-04T05:59:23.920Z,65.05
2019-04-04T06:01:50.388Z,64.95
2019-04-04T06:04:19.121Z,63.79
2019-04-04T06:06:44.251Z,65.04
2019-04-04T06:09:10.126Z,63.10
2019-04-04T06:11:35.975Z,62.94
2019-04-04T06:14:01.930Z,63.81
2019-04-04T06:16:27.744Z,63.68
2019-04-04T06:18:53.648Z,62.97
2019-04-04T06:21:19.486Z,63.33
2019-04-04T06:23:45.424Z,62.04
2019-04-04T06:26:11.302Z,62.71
2019-04-04T06:28:37.126Z,62.45
2019-04-04T06:31:03.196Z,63.36
2019-04-04T06:33:29.088Z,62.91
2019-04-04T06:35:54.933Z,62.66
2019-04-04T06:38:23.092Z,63.26
2019-04-04T06:40:48.812Z,64.17
2019-04-04T06:43:14.756Z,64.46
2019-04-04T06:45:40.770Z,64.93
2019-04-04T06:48:06.724Z,64.91
2019-04-04T06:50:32.608Z,67.22
2019-04-04T06:52:58.454Z,67.25
2019-04-04T06:55:24.310Z,70.59
2019-04-04T06:57:51.350Z,69.05
2019-04-04T07:00:18.578Z,70.06
2019-04-04T07:02:47.161Z,72.82
2019-04-04T07:05:14.311Z,73.95
2019-04-04T07:07:43.090Z,73.17
2019-04-04T07:10:08.811Z,71.08
2019-04-04T07:12:37.859Z,69.97
2019-04-04T07:15:06.280Z,74.74
2019-04-04T07:17:32.128Z,73.57
2019-04-04T07:19:57.977Z,73.71
2019-04-04T07:22:24.949Z,74.02
2019-04-04T07:24:51.407Z,72.21
2019-04-04T07:27:17.235Z,72.42
2019-04-04T07:29:43.526Z,76.50
2019-04-04T07:32:10.168Z,77.25
2019-04-04T07:34:36.194Z,79.39
2019-04-04T07:37:02.306Z,80.19
2019-04-04T07:39:31.994Z,78.12
2019-04-04T07:41:55.879Z,78.45
2019-04-04T07:44:23.291Z,78.34
2019-04-04T07:46:49.585Z,81.11
2019-04-04T07:49:15.528Z,81.37
2019-04-04T07:51:41.478Z,81.32
2019-04-04T07:54:08.036Z,83.07
2019-04-04T07:56:34.114Z,84.92
2019-04-04T07:59:00.113Z,84.83
2019-04-04T08:01:26.007Z,84.29
2019-04-04T08:03:51.880Z,84.61
2019-04-04T08:06:17.822Z,85.94
2019-04-04T08:08:43.651Z,86.77
2019-04-04T08:11:09.710Z,87.33
2019-04-04T08:13:35.574Z,86.96
2019-04-04T08:16:01.508Z,86.53
2019-04-04T08:18:27.476Z,86.29
2019-04-04T08:20:53.312Z,86.38
2019-04-04T08:23:19.291Z,86.73
2019-04-04T08:25:45.138Z,86.63
2019-04-04T08:28:10.980Z,86.68
2019-04-04T08:30:37.069Z,86.29
2019-04-04T08:33:02.908Z,86.20
2019-04-04T08:35:29.928Z,85.77
2019-04-04T08:37:55.924Z,86.74
2019-04-04T08:40:21.924Z,87.04
2019-04-04T08:42:47.823Z,86.74
2019-04-04T08:45:13.840Z,86.21
2019-04-04T08:47:39.669Z,86.15
2019-04-04T08:50:05.962Z,86.34
2019-04-04T08:52:32.018Z,86.22
2019-04-04T08:54:57.905Z,86.42
2019-04-04T08:57:23.977Z,86.34
2019-04-04T08:59:49.829Z,86.39
2019-04-04T09:02:15.740Z,87.10
2019-04-04T09:04:41.624Z,85.71
2019-04-04T09:07:07.497Z,87.05
2019-04-04T09:09:34.795Z,86.71
2019-04-04T09:12:02.091Z,86.18
2019-04-04T09:14:28.018Z,86.27
2019-04-04T09:16:54.128Z,86.73
2019-04-04T09:19:20.111Z,84.98
2019-04-04T09:21:45.937Z,85.07
2019-04-04T09:24:11.929Z,84.93
2019-04-04T09:26:39.587Z,83.52
2019-04-04T09:29:05.443Z,84.69
2019-04-04T09:31:31.310Z,85.35
2019-04-04T09:33:57.170Z,84.27
2019-04-04T09:36:23.043Z,84.65
2019-04-04T09:38:49.008Z,84.79
2019-04-04T09:41:15.102Z,84.42
2019-04-04T09:43:40.931Z,83.42
2019-04-04T09:46:06.830Z,84.53
2019-04-04T09:48:32.779Z,84.83
2019-04-04T09:50:58.590Z,84.61
2019-04-04T09:53:24.616Z,84.91
2019-04-04T09:55:50.746Z,84.68
2019-04-04T09:58:16.659Z,84.44
2019-04-04T10:00:42.959Z,84.81
2019-04-04T10:03:08.884Z,84.14
2019-04-04T10:05:35.173Z,84.87
2019-04-04T10:08:02.169Z,84.42
2019-04-04T10:10:28.238Z,84.86
2019-04-04T10:12:57.621Z,84.77
2019-04-04T10:15:23.668Z,83.38
2019-04-04T10:17:49.659Z,83.84
2019-04-04T10:20:15.653Z,85.07
2019-04-04T10:22:41.686Z,84.63
2019-04-04T10:25:07.735Z,81.95
2019-04-04T10:27:33.837Z,83.68
2019-04-04T10:29:59.931Z,83.74
2019-04-04T10:32:25.809Z,82.46
2019-04-04T10:34:51.819Z,81.75
2019-04-04T10:37:17.715Z,83.47
2019-04-04T10:39:43.598Z,81.86
2019-04-04T10:42:09.407Z,80.28
2019-04-04T10:44:37.067Z,79.53
2019-04-04T10:47:02.926Z,77.70
2019-04-04T10:49:28.930Z,79.99
2019-04-04T10:51:54.702Z,79.38
2019-04-04T10:54:20.492Z,78.67
2019-04-04T10:56:46.205Z,80.88
2019-04-04T10:59:12.054Z,81.78
2019-04-04T11:01:37.903Z,82.95
2019-04-04T11:04:03.723Z,83.01
2019-04-04T11:06:29.429Z,82.88
2019-04-04T11:08:55.368Z,83.67
2019-04-04T11:11:21.099Z,81.27
2019-04-04T11:13:46.851Z,80.98
2019-04-04T11:16:12.574Z,82.60
2019-04-04T11:18:38.532Z,82.00
2019-04-04T11:21:06.177Z,83.40
2019-04-04T11:23:32.033Z,83.05
2019-04-04T11:25:57.928Z,84.13
2019-04-04T11:28:23.669Z,83.99
2019-04-04T11:30:49.541Z,84.29
2019-04-04T11:33:15.467Z,83.57
2019-04-04T11:35:41.251Z,84.50
2019-04-04T11:38:07.718Z,84.48
2019-04-04T11:40:33.508Z,83.56
2019-04-04T11:42:59.302Z,84.05
2019-04-04T11:45:25.034Z,83.84
2019-04-04T11:47:50.848Z,83.95
2019-04-04T11:50:19.361Z,84.32
2019-04-04T11:52:45.224Z,85.11
2019-04-04T11:55:11.065Z,83.98
2019-04-04T11:57:36.953Z,84.69
2019-04-04T12:00:04.322Z,83.96
2019-04-04T12:02:32.608Z,84.43
2019-04-04T12:04:58.022Z,84.43
2019-04-04T12:07:23.986Z,83.98
2019-04-04T12:09:49.766Z,84.39
2019-04-04T12:12:15.472Z,84.60
2019-04-04T12:14:41.230Z,84.66
2019-04-04T12:17:07.018Z,85.09
2019-04-04T12:19:32.769Z,85.06
2019-04-04T12:21:58.540Z,84.14
2019-04-04T12:24:24.349Z,84.66
2019-04-04T12:26:50.464Z,84.26
2019-04-04T12:29:17.654Z,84.86
2019-04-04T12:31:43.430Z,85.23
2019-04-04T12:34:09.471Z,85.69
2019-04-04T12:36:35.270Z,85.27
2019-04-04T12:39:01.157Z,85.29
2019-04-04T12:41:28.229Z,85.81
2019-04-04T12:43:54.176Z,84.58
2019-04-04T12:46:19.953Z,84.02
2019-04-04T12:48:45.809Z,84.20
2019-04-04T12:51:11.605Z,82.53
2019-04-04T12:53:37.336Z,82.73
2019-04-04T12:56:03.537Z,82.32
2019-04-04T12:58:29.521Z,83.74
2019-04-04T13:00:55.331Z,83.96
2019-04-04T13:03:22.405Z,83.58
2019-04-04T13:05:48.650Z,83.61
2019-04-04T13:08:14.448Z,83.99
2019-04-04T13:10:40.303Z,83.30
2019-04-04T13:13:06.220Z,82.86
2019-04-04T13:15:33.696Z,82.47
2019-04-04T13:17:59.558Z,81.68
2019-04-04T13:20:25.535Z,82.23
2019-04-04T13:22:51.459Z,82.37
2019-04-04T13:25:17.341Z,82.36
2019-04-04T13:27:43.219Z,82.67
2019-04-04T13:30:10.418Z,82.10
2019-04-04T13:32:36.381Z,81.31
2019-04-04T13:35:05.735Z,81.58
2019-04-04T13:37:30.765Z,80.86
2019-04-04T13:39:56.637Z,80.08
2019-04-04T13:42:22.546Z,78.76
2019-04-04T13:44:48.318Z,77.61
2019-04-04T13:47:14.059Z,79.50
2019-04-04T13:49:39.752Z,77.50
2019-04-04T13:52:05.538Z,78.66
2019-04-04T13:54:31.520Z,79.54
2019-04-04T13:56:57.512Z,78.94
2019-04-04T13:59:23.639Z,80.06
2019-04-04T14:01:49.648Z,79.94
2019-04-04T14:04:15.555Z,80.23
2019-04-04T14:06:41.340Z,79.46
2019-04-04T14:09:07.651Z,80.78
2019-04-04T14:11:33.596Z,79.80
2019-04-04T14:13:59.500Z,80.04
2019-04-04T14:16:25.453Z,81.14
2019-04-04T14:18:51.325Z,81.42
2019-04-04T14:21:17.146Z,80.80
2019-04-04T14:23:45.259Z,81.20
2019-04-04T14:26:10.887Z,83.73
2019-04-04T14:28:36.827Z,84.18
2019-04-04T14:31:02.733Z,83.90
2019-04-04T14:33:28.637Z,84.05
2019-04-04T14:35:54.415Z,84.32
2019-04-04T14:38:20.271Z,84.99
2019-04-04T14:40:46.201Z,84.88
2019-04-04T14:43:12.022Z,84.74
2019-04-04T14:45:37.924Z,84.41
2019-04-04T14:48:03.849Z,84.49
2019-04-04T14:50:31.655Z,85.57
2019-04-04T14:52:57.701Z,84.61
2019-04-04T14:55:23.668Z,84.80
2019-04-04T14:57:49.443Z,84.81
2019-04-04T15:00:20.322Z,85.01
2019-04-04T15:02:46.210Z,85.17
2019-04-04T15:05:12.178Z,85.14
2019-04-04T15:07:38.122Z,84.90
2019-04-04T15:10:04.639Z,85.61
2019-04-04T15:12:30.677Z,86.42
2019-04-04T15:14:56.617Z,86.85
2019-04-04T15:17:22.452Z,86.67
2019-04-04T15:19:48.510Z,86.95
2019-04-04T15:22:14.405Z,87.31
2019-04-04T15:24:40.074Z,87.49
2019-04-04T15:27:05.882Z,87.35
2019-04-04T15:29:31.653Z,87.51
2019-04-04T15:31:57.389Z,86.68
2019-04-04T15:34:23.225Z,85.69
2019-04-04T15:36:49.104Z,87.64
2019-04-04T15:39:16.071Z,88.27
2019-04-04T15:41:41.997Z,88.42
2019-04-04T15:44:07.974Z,88.53
2019-04-04T15:46:33.768Z,87.94
2019-04-04T15:48:59.532Z,87.30
2019-04-04T15:51:25.457Z,87.00
2019-04-04T15:53:51.305Z,86.37
2019-04-04T15:56:17.120Z,86.40
2019-04-04T15:58:43.081Z,86.27
2019-04-04T16:01:08.920Z,87.02
2019-04-04T16:03:34.762Z,86.71
2019-04-04T16:06:00.676Z,86.22
2019-04-04T16:08:26.569Z,87.38
2019-04-04T16:10:52.346Z,86.66
2019-04-04T16:13:18.396Z,86.62
2019-04-04T16:15:44.205Z,86.67
2019-04-04T16:18:10.074Z,86.88
2019-04-04T16:20:36.109Z,86.29
2019-04-04T16:23:02.099Z,86.62
2019-04-04T16:25:27.943Z,86.91
2019-04-04T16:27:53.965Z,87.17
2019-04-04T16:30:19.888Z,87.33
2019-04-04T16:32:45.661Z,87.63
2019-04-04T16:35:11.483Z,87.78
2019-04-04T16:37:37.200Z,87.20
2019-04-04T16:40:09.211Z,87.56
2019-04-04T16:42:32.619Z,87.89
2019-04-04T16:44:58.445Z,87.83
2019-04-04T16:47:24.373Z,87.47
2019-04-04T16:49:50.346Z,87.70
2019-04-04T16:52:16.173Z,88.25
2019-04-04T16:54:42.044Z,87.38
2019-04-04T16:57:07.931Z,87.33
2019-04-04T16:59:33.663Z,87.62
2019-04-04T17:01:59.515Z,88.03
2019-04-04T17:04:25.346Z,87.68
2019-04-04T17:06:51.164Z,87.51
2019-04-04T17:09:17.027Z,87.69
2019-04-04T17:11:42.847Z,86.06
2019-04-04T17:14:08.727Z,83.82
2019-04-04T17:16:34.662Z,85.11
2019-04-04T17:19:00.515Z,84.74
2019-04-04T17:21:26.506Z,86.33
2019-04-04T17:23:52.290Z,87.47
2019-04-04T17:26:19.186Z,86.92
2019-04-04T17:28:45.606Z,86.91
2019-04-04T17:31:11.500Z,86.72
2019-04-04T17:33:37.310Z,85.83
2019-04-04T17:36:03.600Z,85.98
2019-04-04T17:38:29.609Z,86.08
2019-04-04T17:40:55.504Z,86.02
2019-04-04T17:43:21.370Z,85.65
2019-04-04T17:45:47.185Z,84.92
2019-04-04T17:48:13.097Z,85.59
2019-04-04T17:50:39.149Z,85.92
2019-04-04T17:53:05.415Z,86.53
2019-04-04T17:55:31.181Z,86.36
2019-04-04T17:57:58.345Z,86.15
2019-04-04T18:00:25.082Z,85.91
2019-04-04T18:02:50.900Z,85.39
2019-04-04T18:05:16.939Z,85.76
2019-04-04T18:07:42.767Z,86.17
2019-04-04T18:10:08.931Z,86.98
2019-04-04T18:12:40.275Z,86.34
2019-04-04T18:15:03.873Z,86.42
2019-04-04T18:17:29.878Z,87.46
2019-04-04T18:19:55.595Z,91.42
2019-04-04T18:22:21.455Z,90.86
2019-04-04T18:24:47.461Z,87.29
2019-04-04T18:27:13.313Z,87.84
2019-04-04T18:29:39.129Z,87.25
2019-04-04T18:32:05.090Z,87.39
2019-04-04T18:34:31.342Z,86.86
2019-04-04T18:36:57.523Z,87.05
2019-04-04T18:39:23.379Z,86.78
2019-04-04T18:41:49.232Z,86.65
2019-04-04T18:44:15.421Z,87.20
2019-04-04T18:46:41.261Z,86.78
2019-04-04T18:49:07.158Z,86.60
2019-04-04T18:51:33.127Z,87.20
2019-04-04T18:53:58.866Z,87.06
2019-04-04T18:56:24.955Z,86.72
2019-04-04T18:58:50.758Z,87.52
2019-04-04T19:01:16.603Z,86.34
2019-04-04T19:03:42.450Z,86.35
2019-04-04T19:06:08.422Z,86.84
2019-04-04T19:08:34.367Z,85.33
2019-04-04T19:11:00.176Z,85.43
2019-04-04T19:13:26.219Z,85.89
2019-04-04T19:15:52.325Z,85.35
2019-04-04T19:18:18.254Z,84.99
2019-04-04T19:20:44.137Z,85.94
2019-04-04T19:23:13.993Z,85.49
2019-04-04T19:25:40.967Z,86.23
2019-04-04T19:28:06.877Z,86.48
2019-04-04T19:30:33.889Z,86.74
2019-04-04T19:32:59.796Z,86.80
2019-04-04T19:35:28.078Z,86.91
2019-04-04T19:37:59.916Z,86.89
2019-04-04T19:40:21.712Z,87.11
2019-04-04T19:42:47.681Z,87.37
2019-04-04T19:45:14.028Z,86.60
2019-04-04T19:47:39.961Z,86.78
2019-04-04T19:50:09.866Z,86.52
2019-04-04T19:52:35.854Z,86.94
2019-04-04T19:55:01.893Z,86.87
2019-04-04T19:57:28.539Z,86.86
2019-04-04T19:59:54.509Z,86.98
2019-04-04T20:02:20.752Z,86.76
2019-04-04T20:04:46.736Z,87.10
2019-04-04T20:07:12.658Z,87.04
2019-04-04T20:09:38.645Z,87.31
2019-04-04T20:12:05.677Z,87.11
2019-04-04T20:14:31.605Z,87.86
2019-04-04T20:16:57.588Z,88.38
2019-04-04T20:19:23.632Z,88.33
2019-04-04T20:21:49.561Z,88.56
2019-04-04T20:24:15.527Z,88.68
2019-04-04T20:26:41.565Z,87.42
2019-04-04T20:29:09.006Z,87.91
2019-04-04T20:31:34.943Z,87.83
2019-04-04T20:34:03.223Z,87.89
2019-04-04T20:36:28.871Z,87.78
2019-04-04T20:38:54.723Z,87.32
2019-04-04T20:41:20.782Z,87.12
2019-04-04T20:43:46.699Z,87.06
2019-04-04T20:46:14.558Z,87.17
2019-04-04T20:48:40.495Z,87.29
2019-04-04T20:51:06.724Z,86.69
2019-04-04T20:53:36.282Z,86.84
2019-04-04T20:56:02.208Z,87.21
2019-04-04T20:58:28.179Z,86.84
2019-04-04T21:00:53.997Z,86.37
2019-04-04T21:03:19.949Z,86.61
2019-04-04T21:05:45.895Z,86.21
2019-04-04T21:08:11.674Z,85.39
2019-04-04T21:10:37.439Z,85.06
2019-04-04T21:13:03.369Z,85.51
2019-04-04T21:15:29.187Z,84.84
2019-04-04T21:17:55.014Z,86.23
2019-04-04T21:20:20.729Z,87.17
2019-04-04T21:22:46.467Z,87.03
2019-04-04T21:25:12.321Z,86.83
2019-04-04T21:27:38.040Z,86.75
2019-04-04T21:30:07.442Z,87.04
2019-04-04T21:32:33.268Z,87.10
2019-04-04T21:34:59.158Z,87.24
2019-04-04T21:37:24.982Z,86.68
2019-04-04T21:39:50.806Z,87.49
2019-04-04T21:42:16.592Z,87.03
2019-04-04T21:44:42.374Z,86.79
2019-04-04T21:47:08.192Z,87.02
2019-04-04T21:49:34.017Z,86.79
2019-04-04T21:52:00.058Z,87.01
2019-04-04T21:54:25.975Z,86.94
2019-04-04T21:56:51.786Z,86.24
2019-04-04T21:59:17.744Z,85.62
2019-04-04T22:01:43.663Z,85.67
2019-04-04T22:04:46.998Z,85.98
2019-04-04T22:07:12.958Z,85.73
2019-04-04T22:09:38.887Z,85.58
2019-04-04T22:12:04.863Z,85.38
2019-04-04T22:14:30.764Z,85.22
2019-04-04T22:16:56.678Z,84.84
2019-04-04T22:19:22.576Z,85.42
2019-04-04T22:21:48.462Z,84.75
2019-04-04T22:24:14.271Z,85.65
2019-04-04T22:26:40.171Z,85.44
2019-04-04T22:29:05.877Z,85.59
2019-04-04T22:31:31.572Z,86.22
2019-04-04T22:33:57.284Z,86.48
2019-04-04T22:36:23.072Z,85.58
2019-04-04T22:38:48.928Z,85.04
2019-04-04T22:41:14.647Z,85.15
2019-04-04T22:43:40.428Z,84.98
2019-04-04T22:46:06.268Z,85.21
2019-04-04T22:48:31.975Z,86.08
2019-04-04T22:50:57.645Z,85.94
2019-04-04T22:53:23.434Z,86.09
2019-04-04T22:55:49.253Z,84.97
2019-04-04T22:58:27.360Z,83.97
2019-04-04T23:00:42.782Z,83.35
2019-04-04T23:03:08.547Z,83.07
2019-04-04T23:05:34.273Z,83.25
2019-04-04T23:07:59.972Z,84.00
2019-04-04T23:10:25.639Z,83.32
2019-04-04T23:12:51.307Z,83.37
2019-04-04T23:15:17.045Z,83.70
2019-04-04T23:17:45.370Z,84.11
2019-04-04T23:20:10.548Z,83.89
2019-04-04T23:22:36.325Z,84.10
2019-04-04T23:25:03.029Z,83.96
2019-04-04T23:27:28.707Z,82.50
2019-04-04T23:29:54.660Z,82.33
2019-04-04T23:32:20.427Z,80.50
2019-04-04T23:34:46.123Z,81.58
2019-04-04T23:37:11.933Z,81.40
2019-04-04T23:39:37.727Z,82.44
2019-04-04T23:42:03.416Z,83.30
2019-04-04T23:44:29.229Z,82.82
2019-04-04T23:46:54.944Z,82.84
2019-04-04T23:49:20.719Z,81.99
2019-04-04T23:51:46.627Z,82.99
2019-04-04T23:54:12.322Z,83.20
2019-04-04T23:56:38.538Z,82.65
2019-04-04T23:59:04.313Z,82.97
